createdAt,value
2023-05-12T00:02:00.224Z,7.47
2023-05-12T00:04:27.658Z,7.03
2023-05-12T00:06:54.515Z,7.68
2023-05-12T00:09:21.266Z,6.85
2023-05-12T00:11:48.561Z,7.05
2023-05-12T00:14:16.002Z,6.72
2023-05-12T00:16:43.398Z,7.03
2023-05-12T00:19:10.690Z,6.70
2023-05-12T00:21:37.559Z,6.53
2023-05-12T00:24:05.038Z,6.20
2023-05-12T00:26:32.403Z,5.97
2023-05-12T00:28:59.346Z,5.82
2023-05-12T00:31:26.916Z,6.28
2023-05-12T00:33:54.288Z,6.90
2023-05-12T00:36:21.337Z,6.63
2023-05-12T00:38:49.618Z,7.05
2023-05-12T00:41:16.996Z,6.03
2023-05-12T00:43:44.156Z,6.15
2023-05-12T00:46:11.842Z,6.07
2023-05-12T00:48:38.941Z,6.60
2023-05-12T00:51:06.400Z,6.85
2023-05-12T00:53:47.651Z,6.38
2023-05-12T00:56:18.621Z,6.50
2023-05-12T00:58:46.779Z,6.75
2023-05-12T01:01:15.618Z,7.00
2023-05-12T01:03:43.674Z,6.50
2023-05-12T01:06:13.658Z,6.00
2023-05-12T01:08:41.430Z,6.78
2023-05-12T01:11:08.946Z,6.85
2023-05-12T01:13:36.105Z,6.55
2023-05-12T01:16:03.102Z,7.35
2023-05-12T01:18:32.744Z,6.70
2023-05-12T01:21:00.226Z,6.20
2023-05-12T01:23:31.211Z,6.20
2023-05-12T01:26:06.893Z,5.70
2023-05-12T01:28:35.395Z,6.35
2023-05-12T01:31:03.568Z,6.30
2023-05-12T01:33:30.299Z,6.55
2023-05-12T01:35:57.498Z,7.18
2023-05-12T01:38:24.310Z,6.82
2023-05-12T01:40:51.485Z,6.47
2023-05-12T01:43:21.983Z,6.70
2023-05-12T01:45:48.906Z,6.97
2023-05-12T01:48:15.609Z,6.95
2023-05-12T01:50:42.822Z,7.13
2023-05-12T01:53:14.576Z,6.93
2023-05-12T01:55:41.194Z,6.82
2023-05-12T01:58:07.784Z,6.88
2023-05-12T02:00:35.000Z,6.63
2023-05-12T02:03:02.668Z,6.95
2023-05-12T02:05:29.611Z,6.97
2023-05-12T02:07:56.649Z,6.70
2023-05-12T02:10:23.542Z,6.50
2023-05-12T02:12:50.421Z,7.18
2023-05-12T02:15:17.474Z,7.40
2023-05-12T02:17:46.196Z,7.45
2023-05-12T02:20:14.634Z,7.82
2023-05-12T02:22:42.961Z,8.43
2023-05-12T02:25:09.682Z,8.30
2023-05-12T02:27:36.570Z,8.48
2023-05-12T02:30:04.424Z,9.45
2023-05-12T02:32:32.889Z,8.63
2023-05-12T02:34:59.523Z,8.95
2023-05-12T02:37:26.279Z,8.90
2023-05-12T02:39:53.391Z,8.82
2023-05-12T02:42:20.045Z,8.70
2023-05-12T02:44:47.100Z,9.45
2023-05-12T02:47:13.742Z,7.95
2023-05-12T02:49:40.291Z,7.75
2023-05-12T02:52:07.446Z,8.13
2023-05-12T02:54:34.024Z,8.32
2023-05-12T02:57:04.923Z,7.40
2023-05-12T02:59:31.569Z,8.07
2023-05-12T03:01:58.209Z,7.93
2023-05-12T03:04:24.809Z,8.15
2023-05-12T03:06:51.599Z,7.88
2023-05-12T03:09:18.316Z,7.80
2023-05-12T03:11:44.930Z,8.30
2023-05-12T03:14:11.605Z,7.60
2023-05-12T03:16:38.260Z,7.15
2023-05-12T03:19:05.309Z,7.47
2023-05-12T03:21:32.166Z,7.65
2023-05-12T03:23:58.849Z,7.45
2023-05-12T03:26:25.917Z,8.23
2023-05-12T03:28:52.806Z,8.38
2023-05-12T03:31:19.601Z,7.90
2023-05-12T03:33:46.827Z,8.15
2023-05-12T03:36:13.613Z,8.48
2023-05-12T03:38:40.325Z,8.75
2023-05-12T03:41:07.407Z,8.85
2023-05-12T03:43:35.865Z,8.50
2023-05-12T03:46:03.625Z,8.30
2023-05-12T03:48:30.347Z,9.10
2023-05-12T03:50:57.147Z,8.38
2023-05-12T03:53:23.869Z,9.00
2023-05-12T03:55:50.592Z,9.30
2023-05-12T03:58:17.394Z,9.30
2023-05-12T04:00:44.305Z,9.07
2023-05-12T04:03:11.271Z,9.70
2023-05-12T04:05:39.401Z,9.38
2023-05-12T04:08:06.197Z,9.45
2023-05-12T04:10:32.868Z,9.82
2023-05-12T04:12:59.537Z,9.38
2023-05-12T04:15:26.514Z,9.02
2023-05-12T04:17:53.237Z,8.25
2023-05-12T04:20:20.074Z,9.27
2023-05-12T04:22:47.619Z,8.55
2023-05-12T04:25:14.416Z,8.98
2023-05-12T04:27:41.118Z,9.00
2023-05-12T04:30:08.386Z,9.82
2023-05-12T04:32:37.032Z,10.02
2023-05-12T04:35:03.885Z,9.82
2023-05-12T04:37:30.694Z,10.13
2023-05-12T04:39:57.517Z,9.68
2023-05-12T04:42:24.128Z,10.40
2023-05-12T04:44:51.432Z,11.18
2023-05-12T04:47:18.856Z,10.98
2023-05-12T04:49:45.880Z,11.80
2023-05-12T04:52:14.425Z,10.40
2023-05-12T04:54:41.152Z,11.02
2023-05-12T04:57:08.417Z,11.82
2023-05-12T04:59:36.051Z,11.63
2023-05-12T05:02:02.917Z,10.95
2023-05-12T05:04:29.579Z,11.10
2023-05-12T05:06:56.281Z,11.00
2023-05-12T05:09:23.675Z,11.15
2023-05-12T05:11:50.396Z,11.13
2023-05-12T05:14:17.104Z,10.70
2023-05-12T05:16:44.920Z,11.40
2023-05-12T05:19:20.909Z,11.85
2023-05-12T05:21:56.650Z,11.25
2023-05-12T05:24:24.341Z,11.50
2023-05-12T05:26:50.925Z,11.77
2023-05-12T05:29:18.122Z,10.77
2023-05-12T05:31:44.954Z,11.18
2023-05-12T05:34:11.947Z,11.95
2023-05-12T05:36:39.141Z,11.43
2023-05-12T05:39:05.908Z,11.38
2023-05-12T05:41:32.544Z,10.60
2023-05-12T05:43:59.361Z,11.27
2023-05-12T05:46:26.016Z,11.20
2023-05-12T05:48:52.749Z,10.35
2023-05-12T05:51:19.673Z,10.48
2023-05-12T05:53:46.740Z,10.35
2023-05-12T05:56:14.646Z,10.30
2023-05-12T05:58:41.482Z,10.50
2023-05-12T06:01:08.249Z,10.32
2023-05-12T06:03:35.993Z,10.13
2023-05-12T06:06:02.848Z,10.50
2023-05-12T06:08:29.405Z,10.75
2023-05-12T06:10:56.069Z,10.25
2023-05-12T06:13:22.635Z,11.35
2023-05-12T06:15:49.259Z,10.18
2023-05-12T06:18:16.257Z,11.82
2023-05-12T06:20:43.237Z,10.77
2023-05-12T06:23:09.982Z,9.80
2023-05-12T06:25:36.565Z,9.93
2023-05-12T06:28:03.163Z,9.00
2023-05-12T06:30:29.854Z,8.93
2023-05-12T06:32:56.579Z,8.32
2023-05-12T06:35:23.209Z,8.35
2023-05-12T06:37:50.868Z,8.02
2023-05-12T06:40:17.564Z,8.15
2023-05-12T06:42:44.542Z,8.40
2023-05-12T06:45:14.769Z,7.32
2023-05-12T06:47:41.470Z,7.15
2023-05-12T06:50:08.671Z,6.85
2023-05-12T06:52:35.837Z,7.40
2023-05-12T06:55:03.098Z,6.55
2023-05-12T06:57:30.576Z,6.03
2023-05-12T06:59:57.153Z,6.32
2023-05-12T07:02:23.838Z,6.30
2023-05-12T07:04:50.609Z,6.10
2023-05-12T07:07:17.172Z,6.45
2023-05-12T07:09:45.162Z,5.70
2023-05-12T07:12:12.218Z,6.18
2023-05-12T07:14:38.776Z,5.90
2023-05-12T07:17:05.509Z,5.85
2023-05-12T07:19:32.331Z,6.47
2023-05-12T07:21:59.058Z,6.40
2023-05-12T07:24:25.720Z,6.63
2023-05-12T07:26:52.306Z,6.13
2023-05-12T07:29:19.219Z,6.47
2023-05-12T07:31:45.848Z,6.80
2023-05-12T07:34:12.452Z,6.80
2023-05-12T07:36:39.042Z,6.00
2023-05-12T07:39:05.895Z,6.55
2023-05-12T07:41:34.283Z,6.78
2023-05-12T07:44:02.225Z,6.47
2023-05-12T07:46:28.844Z,6.40
2023-05-12T07:48:55.578Z,6.13
2023-05-12T07:51:22.137Z,6.30
2023-05-12T07:53:48.730Z,6.50
2023-05-12T07:56:15.381Z,6.90
2023-05-12T07:58:41.981Z,5.97
2023-05-12T08:01:10.130Z,6.78
2023-05-12T08:03:36.892Z,7.10
2023-05-12T08:06:05.743Z,7.32
2023-05-12T08:08:32.363Z,7.63
2023-05-12T08:10:59.113Z,7.25
2023-05-12T08:13:26.501Z,7.10
2023-05-12T08:15:53.168Z,7.20
2023-05-12T08:18:20.091Z,6.32
2023-05-12T08:20:49.047Z,6.70
2023-05-12T08:23:18.851Z,6.28
2023-05-12T08:25:45.540Z,7.22
2023-05-12T08:28:12.868Z,7.00
2023-05-12T08:30:39.617Z,6.22
2023-05-12T08:33:06.389Z,5.55
2023-05-12T08:35:34.615Z,6.70
2023-05-12T08:38:01.696Z,6.13
2023-05-12T08:40:31.246Z,5.72
2023-05-12T08:43:06.747Z,6.05
2023-05-12T08:45:37.556Z,6.50
2023-05-12T08:48:06.293Z,4.90
2023-05-12T08:50:35.848Z,6.05
2023-05-12T08:53:04.105Z,5.70
2023-05-12T08:55:34.112Z,5.93
2023-05-12T09:00:28.692Z,5.80
2023-05-12T09:02:55.791Z,6.10
2023-05-12T09:05:23.350Z,5.63
2023-05-12T09:07:51.867Z,5.57
2023-05-12T09:10:33.459Z,5.32
2023-05-12T09:13:07.456Z,5.68
2023-05-12T09:15:37.284Z,5.93
2023-05-12T09:18:04.029Z,5.90
2023-05-12T09:20:32.064Z,5.60
2023-05-12T09:23:00.028Z,5.68
2023-05-12T09:25:26.919Z,5.95
2023-05-12T09:27:57.344Z,5.45
2023-05-12T09:30:31.505Z,5.53
2023-05-12T09:33:11.183Z,5.10
2023-05-12T09:35:42.238Z,4.68
2023-05-12T09:38:10.087Z,5.97
2023-05-12T09:40:37.038Z,5.40
2023-05-12T09:43:07.529Z,5.75
2023-05-12T09:45:35.963Z,4.45
2023-05-12T09:48:09.490Z,5.07
2023-05-12T09:50:47.442Z,5.28
2023-05-12T09:53:15.665Z,4.88
2023-05-12T09:55:47.056Z,5.38
2023-05-12T09:58:16.368Z,4.85
2023-05-12T10:01:12.945Z,4.10
2023-05-12T10:03:31.506Z,3.67
2023-05-12T10:05:58.986Z,4.03
2023-05-12T10:08:30.828Z,3.65
2023-05-12T10:10:57.979Z,4.15
2023-05-12T10:13:24.810Z,4.32
2023-05-12T10:15:52.257Z,4.35
2023-05-12T10:18:19.360Z,4.50
2023-05-12T10:20:46.217Z,4.10
2023-05-12T10:23:13.515Z,3.70
2023-05-12T10:25:44.264Z,3.03
2023-05-12T10:28:11.647Z,2.80
2023-05-12T10:30:39.182Z,2.97
2023-05-12T10:33:08.433Z,2.63
2023-05-12T10:35:36.342Z,2.70
2023-05-12T10:38:07.414Z,2.10
2023-05-12T10:40:34.167Z,2.30
2023-05-12T10:43:01.316Z,1.42
2023-05-12T10:45:28.163Z,1.60
2023-05-12T10:48:08.179Z,1.90
2023-05-12T10:50:35.176Z,1.77
2023-05-12T10:53:01.848Z,1.65
2023-05-12T10:55:36.630Z,1.35
2023-05-12T10:58:10.855Z,1.50
2023-05-12T11:00:45.893Z,1.60
2023-05-12T11:03:15.672Z,1.38
2023-05-12T11:05:44.190Z,1.70
2023-05-12T11:08:11.700Z,2.17
2023-05-12T11:10:41.481Z,2.25
2023-05-12T11:13:08.291Z,2.53
2023-05-12T11:15:34.916Z,2.72
2023-05-12T11:18:05.522Z,2.50
2023-05-12T11:20:32.532Z,2.00
2023-05-12T11:22:59.176Z,2.00
2023-05-12T11:25:28.855Z,1.77
2023-05-12T11:27:55.743Z,1.77
2023-05-12T11:30:22.749Z,2.30
2023-05-12T11:33:00.290Z,1.52
2023-05-12T11:35:31.066Z,1.48
2023-05-12T11:37:57.689Z,1.65
2023-05-12T11:40:24.233Z,1.33
2023-05-12T11:42:52.577Z,1.80
2023-05-12T11:45:29.807Z,1.75
2023-05-12T11:48:11.457Z,1.83
2023-05-12T11:50:42.709Z,2.00
2023-05-12T11:53:11.298Z,2.33
2023-05-12T11:55:37.988Z,2.30
2023-05-12T11:58:04.740Z,3.63
2023-05-12T12:00:35.242Z,3.17
2023-05-12T12:03:09.928Z,3.60
2023-05-12T12:05:36.796Z,3.70
2023-05-12T12:08:13.226Z,3.45
2023-05-12T12:10:44.080Z,4.35
2023-05-12T12:13:11.055Z,4.97
2023-05-12T12:15:37.720Z,4.45
2023-05-12T12:18:04.704Z,4.80
2023-05-12T12:20:31.372Z,4.35
2023-05-12T12:22:57.959Z,4.43
2023-05-12T12:25:24.677Z,4.78
2023-05-12T12:27:52.882Z,4.55
2023-05-12T12:30:19.679Z,4.57
2023-05-12T12:32:46.355Z,4.80
2023-05-12T12:35:13.452Z,5.60
2023-05-12T12:37:41.024Z,4.68
2023-05-12T12:40:08.822Z,5.30
2023-05-12T12:42:36.568Z,5.70
2023-05-12T12:45:05.257Z,5.20
2023-05-12T12:47:32.214Z,5.53
2023-05-12T12:50:00.047Z,5.68
2023-05-12T12:52:26.948Z,6.00
2023-05-12T12:54:54.259Z,5.90
2023-05-12T12:57:22.302Z,7.28
2023-05-12T12:59:49.676Z,6.40
2023-05-12T13:02:16.666Z,6.50
2023-05-12T13:04:43.462Z,6.47
2023-05-12T13:07:10.276Z,7.03
2023-05-12T13:09:37.062Z,5.97
2023-05-12T13:12:04.073Z,5.68
2023-05-12T13:14:30.681Z,5.82
2023-05-12T13:16:57.599Z,5.97
2023-05-12T13:19:24.324Z,5.60
2023-05-12T13:21:51.007Z,6.07
2023-05-12T13:24:17.623Z,5.65
2023-05-12T13:26:44.248Z,5.70
2023-05-12T13:29:11.164Z,4.70
2023-05-12T13:31:38.813Z,5.45
2023-05-12T13:34:05.887Z,5.55
2023-05-12T13:36:34.710Z,6.22
2023-05-12T13:39:02.742Z,6.13
2023-05-12T13:41:29.684Z,6.25
2023-05-12T13:43:56.336Z,7.07
2023-05-12T13:46:23.047Z,7.00
2023-05-12T13:48:51.285Z,7.00
2023-05-12T13:51:18.961Z,6.75
2023-05-12T13:53:45.733Z,6.18
2023-05-12T13:56:16.492Z,7.40
2023-05-12T13:58:43.683Z,7.03
2023-05-12T14:01:10.767Z,6.18
2023-05-12T14:03:37.793Z,6.85
2023-05-12T14:06:05.101Z,6.32
2023-05-12T14:08:31.959Z,5.68
2023-05-12T14:10:58.758Z,6.47
2023-05-12T14:13:26.174Z,6.22
2023-05-12T14:15:53.898Z,6.20
2023-05-12T14:18:20.918Z,6.35
2023-05-12T14:20:47.792Z,6.82
2023-05-12T14:23:14.415Z,6.53
2023-05-12T14:25:41.070Z,6.25
2023-05-12T14:28:07.755Z,6.40
2023-05-12T14:30:35.297Z,5.53
2023-05-12T14:33:02.791Z,6.53
2023-05-12T14:35:29.981Z,5.80
2023-05-12T14:37:56.801Z,5.97
2023-05-12T14:40:23.974Z,5.95
2023-05-12T14:42:50.854Z,6.57
2023-05-12T14:45:17.711Z,6.90
2023-05-12T14:47:44.590Z,6.88
2023-05-12T14:50:11.483Z,7.30
2023-05-12T14:52:38.558Z,6.80
2023-05-12T14:55:11.907Z,6.75
2023-05-12T14:57:39.770Z,6.70
2023-05-12T15:00:11.222Z,7.53
2023-05-12T15:02:38.743Z,7.35
2023-05-12T15:05:07.088Z,8.00
2023-05-12T15:07:33.745Z,7.32
2023-05-12T15:10:00.890Z,7.35
2023-05-12T15:12:27.671Z,7.57
2023-05-12T15:14:55.921Z,7.72
2023-05-12T15:17:22.716Z,7.80
2023-05-12T15:19:49.266Z,6.78
2023-05-12T15:22:15.883Z,7.22
2023-05-12T15:24:43.081Z,6.53
2023-05-12T15:27:09.787Z,6.80
2023-05-12T15:29:40.003Z,6.80
2023-05-12T15:34:34.508Z,5.90
2023-05-12T15:37:01.090Z,5.93
2023-05-12T15:39:27.733Z,4.93
2023-05-12T15:41:54.308Z,4.82
2023-05-12T15:44:20.986Z,4.53
2023-05-12T15:46:47.738Z,5.97
2023-05-12T15:49:14.511Z,7.50
2023-05-12T15:51:41.101Z,7.50
2023-05-12T15:54:09.480Z,7.20
2023-05-12T15:56:37.223Z,6.70
2023-05-12T15:59:05.098Z,6.85
2023-05-12T16:01:32.156Z,5.78
2023-05-12T16:03:59.560Z,5.80
2023-05-12T16:06:26.352Z,4.85
2023-05-12T16:08:53.341Z,5.18
2023-05-12T16:11:19.988Z,4.72
2023-05-12T16:13:46.574Z,4.45
2023-05-12T16:16:13.207Z,4.45
2023-05-12T16:18:40.182Z,3.38
2023-05-12T16:21:07.362Z,2.80
2023-05-12T16:23:34.230Z,2.88
2023-05-12T16:26:00.931Z,2.50
2023-05-12T16:28:28.026Z,2.60
2023-05-12T16:30:54.615Z,2.75
2023-05-12T16:33:21.487Z,2.63
2023-05-12T16:35:48.232Z,2.40
2023-05-12T16:38:15.296Z,2.70
2023-05-12T16:40:41.891Z,2.28
2023-05-12T16:43:08.484Z,2.40
2023-05-12T16:45:35.477Z,2.22
2023-05-12T16:48:02.183Z,2.33
2023-05-12T16:50:28.927Z,2.20
2023-05-12T16:52:55.785Z,2.25
2023-05-12T16:55:22.692Z,2.20
2023-05-12T16:57:50.104Z,2.25
2023-05-12T17:00:17.102Z,2.15
2023-05-12T17:02:43.863Z,1.90
2023-05-12T17:05:10.694Z,2.30
2023-05-12T17:07:37.819Z,2.10
2023-05-12T17:10:04.725Z,1.90
2023-05-12T17:12:31.431Z,1.90
2023-05-12T17:15:06.940Z,1.60
2023-05-12T17:17:34.671Z,1.58
2023-05-12T17:20:01.589Z,1.40
2023-05-12T17:22:28.391Z,1.38
2023-05-12T17:24:55.282Z,1.05
2023-05-12T17:27:22.090Z,1.10
2023-05-12T17:29:49.248Z,1.00
2023-05-12T17:32:16.001Z,0.98
2023-05-12T17:34:42.663Z,0.85
2023-05-12T17:37:09.374Z,0.85
2023-05-12T17:39:37.949Z,1.00
2023-05-12T17:42:04.929Z,0.93
2023-05-12T17:44:31.551Z,1.00
2023-05-12T17:46:58.378Z,0.73
2023-05-12T17:49:24.948Z,0.80
2023-05-12T17:51:54.706Z,0.68
2023-05-12T17:54:21.323Z,0.90
2023-05-12T17:56:48.096Z,0.70
2023-05-12T17:59:14.851Z,0.90
2023-05-12T18:01:41.589Z,0.80
2023-05-12T18:04:08.235Z,0.70
2023-05-12T18:06:35.485Z,0.98
2023-05-12T18:09:02.654Z,0.80
2023-05-12T18:11:29.687Z,0.80
2023-05-12T18:13:56.531Z,0.70
2023-05-12T18:16:29.059Z,0.80
2023-05-12T18:18:56.274Z,1.08
2023-05-12T18:21:22.966Z,0.85
2023-05-12T18:23:49.576Z,1.10
2023-05-12T18:26:16.214Z,0.88
2023-05-12T18:28:42.839Z,0.90
2023-05-12T18:31:15.791Z,1.00
2023-05-12T18:33:46.481Z,1.30
2023-05-12T18:36:13.201Z,1.55
2023-05-12T18:38:40.033Z,1.30
2023-05-12T18:41:07.152Z,1.20
2023-05-12T18:43:34.876Z,1.10
2023-05-12T18:46:01.997Z,1.10
2023-05-12T18:48:28.685Z,1.35
2023-05-12T18:50:56.025Z,1.90
2023-05-12T18:53:23.005Z,1.80
2023-05-12T18:55:50.226Z,2.38
2023-05-12T18:58:17.123Z,2.00
2023-05-12T19:00:44.452Z,2.10
2023-05-12T19:03:11.133Z,2.03
2023-05-12T19:05:38.788Z,2.50
2023-05-12T19:08:05.814Z,3.10
2023-05-12T19:10:32.454Z,3.28
2023-05-12T19:12:59.124Z,3.08
2023-05-12T19:15:25.936Z,2.60
2023-05-12T19:17:52.713Z,2.50
2023-05-12T19:20:19.406Z,2.40
2023-05-12T19:22:46.468Z,2.90
2023-05-12T19:25:17.630Z,3.03
2023-05-12T19:27:47.096Z,2.80
2023-05-12T19:30:14.437Z,2.90
2023-05-12T19:32:42.512Z,2.83
2023-05-12T19:35:12.330Z,2.80
2023-05-12T19:37:39.120Z,3.38
2023-05-12T19:40:06.500Z,3.33
2023-05-12T19:42:33.081Z,3.60
2023-05-12T19:45:00.700Z,2.90
2023-05-12T19:47:28.049Z,2.80
2023-05-12T19:49:54.944Z,3.28
2023-05-12T19:52:24.628Z,2.80
2023-05-12T19:54:52.287Z,3.38
2023-05-12T19:57:19.764Z,4.35
2023-05-12T19:59:46.468Z,3.50
2023-05-12T20:02:14.451Z,3.42
2023-05-12T20:04:41.203Z,3.03
2023-05-12T20:07:07.923Z,3.13
2023-05-12T20:09:34.558Z,3.53
2023-05-12T20:12:01.173Z,3.85
2023-05-12T20:14:27.752Z,4.43
2023-05-12T20:16:55.566Z,4.72
2023-05-12T20:19:22.229Z,3.72
2023-05-12T20:21:48.827Z,4.50
2023-05-12T20:24:15.461Z,4.90
2023-05-12T20:26:42.045Z,4.88
2023-05-12T20:29:08.851Z,4.90
2023-05-12T20:31:35.792Z,4.30
2023-05-12T20:34:02.716Z,4.22
2023-05-12T20:36:29.425Z,3.85
2023-05-12T20:38:56.110Z,4.15
2023-05-12T20:41:22.709Z,3.60
2023-05-12T20:43:49.475Z,3.30
2023-05-12T20:46:16.210Z,3.58
2023-05-12T20:48:43.081Z,2.90
2023-05-12T20:51:11.477Z,3.45
2023-05-12T20:53:38.148Z,3.33
2023-05-12T20:56:04.954Z,3.38
2023-05-12T20:58:31.568Z,3.08
2023-05-12T21:00:58.976Z,3.47
2023-05-12T21:03:26.596Z,3.53
2023-05-12T21:05:53.212Z,3.60
2023-05-12T21:08:19.916Z,4.43
2023-05-12T21:10:48.222Z,3.88
2023-05-12T21:13:14.882Z,4.63
2023-05-12T21:15:41.524Z,5.05
2023-05-12T21:18:08.988Z,5.40
2023-05-12T21:20:35.718Z,5.20
2023-05-12T21:23:03.181Z,5.78
2023-05-12T21:25:29.849Z,5.55
2023-05-12T21:27:56.468Z,5.25
2023-05-12T21:30:23.273Z,4.85
2023-05-12T21:32:50.022Z,5.20
2023-05-12T21:35:16.828Z,4.65
2023-05-12T21:37:43.448Z,5.05
2023-05-12T21:40:10.676Z,5.32
2023-05-12T21:42:37.358Z,5.28
2023-05-12T21:45:04.389Z,4.50
2023-05-12T21:47:31.082Z,5.07
2023-05-12T21:49:57.712Z,4.88
2023-05-12T21:52:24.522Z,4.43
2023-05-12T21:54:51.143Z,4.53
2023-05-12T21:57:17.880Z,4.05
2023-05-12T21:59:44.913Z,5.47
2023-05-12T22:02:11.564Z,5.07
2023-05-12T22:04:38.260Z,4.80
2023-05-12T22:07:05.169Z,5.10
2023-05-12T22:09:32.008Z,4.63
2023-05-12T22:11:58.667Z,4.20
2023-05-12T22:14:25.308Z,4.25
2023-05-12T22:16:51.964Z,4.00
2023-05-12T22:19:19.687Z,4.22
2023-05-12T22:21:46.531Z,4.43
2023-05-12T22:24:13.103Z,4.50
2023-05-12T22:26:39.651Z,4.47
2023-05-12T22:29:06.285Z,4.63
2023-05-12T22:31:32.952Z,4.68
2023-05-12T22:33:59.689Z,4.60
2023-05-12T22:36:26.458Z,5.03
2023-05-12T22:38:53.126Z,4.80
2023-05-12T22:41:19.782Z,4.03
2023-05-12T22:43:46.395Z,4.80
2023-05-12T22:46:12.998Z,3.92
2023-05-12T22:48:39.912Z,3.92
2023-05-12T22:51:06.656Z,3.83
2023-05-12T22:53:35.745Z,3.35
2023-05-12T22:56:03.398Z,3.30
2023-05-12T22:58:30.194Z,2.42
2023-05-12T23:00:56.810Z,3.60
2023-05-12T23:03:23.695Z,3.40
2023-05-12T23:05:50.465Z,4.03
2023-05-12T23:08:17.112Z,3.20
2023-05-12T23:10:43.839Z,2.25
2023-05-12T23:13:10.423Z,1.80
2023-05-12T23:15:37.018Z,2.13
2023-05-12T23:18:03.724Z,2.10
2023-05-12T23:20:31.545Z,1.77
2023-05-12T23:22:58.190Z,1.98
2023-05-12T23:25:24.769Z,2.50
2023-05-12T23:27:51.405Z,2.60
2023-05-12T23:30:17.974Z,2.85
2023-05-12T23:32:44.879Z,3.03
2023-05-12T23:35:11.845Z,3.65
2023-05-12T23:37:38.440Z,4.22
2023-05-12T23:40:05.774Z,4.90
2023-05-12T23:42:32.412Z,4.88
2023-05-12T23:44:59.042Z,4.18
2023-05-12T23:47:25.740Z,4.20
2023-05-12T23:49:52.637Z,4.53
2023-05-12T23:52:19.267Z,4.28
2023-05-12T23:54:45.916Z,4.75
2023-05-12T23:57:12.570Z,4.70
2023-05-12T23:59:39.143Z,4.88
